Time;durP1;ratioP1;P1;durP2;ratioP2;P2;SDS_P1;SDS_P2;PMS_P1;PMS_P2;Temp;Humidity;BMP_temperature;BMP_pressure;BME280_temperature;BME280_humidity;BME280_pressure;Samples;Min_cycle;Max_cycle;Signal;HPM_P1;HPM_P2
2022/12/04 00:01:06;;;;;;;26.60;12.05;;;2.00;99.90;;;;;;5019245;28;20561;-66
2022/12/04 00:03:32;;;;;;;25.95;12.15;;;2.00;99.90;;;;;;5015819;28;20364;-66
2022/12/04 00:06:16;;;;;;;24.80;11.20;;;2.00;99.90;;;;;;5020077;28;20112;-66
2022/12/04 00:08:43;;;;;;;29.85;12.35;;;2.00;99.90;;;;;;5021128;28;20124;-67
2022/12/04 00:11:10;;;;;;;25.92;11.38;;;2.00;99.90;;;;;;5018814;28;20208;-67
2022/12/04 00:13:36;;;;;;;28.83;12.27;;;2.00;99.90;;;;;;5019237;28;20498;-65
2022/12/04 00:16:14;;;;;;;28.15;12.43;;;1.90;99.90;;;;;;5027685;28;20572;-67
2022/12/04 00:18:40;;;;;;;27.55;11.77;;;2.00;99.90;;;;;;5015415;28;20778;-67
2022/12/04 00:21:08;;;;;;;27.88;10.82;;;1.90;99.90;;;;;;5015115;28;20081;-68
2022/12/04 00:23:35;;;;;;;22.77;10.32;;;2.00;99.90;;;;;;5016351;28;20617;-67
2022/12/04 00:26:06;;;;;;;31.60;13.00;;;2.00;99.90;;;;;;5017347;28;20034;-67
2022/12/04 00:28:32;;;;;;;28.38;11.73;;;1.90;99.90;;;;;;5016635;28;20030;-67
2022/12/04 00:30:57;;;;;;;28.05;12.45;;;1.90;99.90;;;;;;5019168;28;20034;-67
2022/12/04 00:33:23;;;;;;;26.75;12.32;;;1.90;99.90;;;;;;5017842;28;20036;-67
2022/12/04 00:35:57;;;;;;;28.35;11.32;;;2.00;99.90;;;;;;5020847;28;20378;-68
2022/12/04 00:38:22;;;;;;;28.25;11.73;;;2.00;99.90;;;;;;5014101;28;20044;-66
2022/12/04 00:40:49;;;;;;;27.85;12.23;;;2.00;99.90;;;;;;5012480;28;20746;-67
2022/12/04 00:43:15;;;;;;;24.90;10.27;;;1.90;99.90;;;;;;5015894;28;20018;-67
2022/12/04 00:45:41;;;;;;;31.85;12.77;;;1.90;99.90;;;;;;5013518;28;20478;-66
2022/12/04 00:48:06;;;;;;;27.00;11.32;;;1.90;99.90;;;;;;5011822;28;20029;-67
2022/12/04 00:50:32;;;;;;;26.67;12.63;;;1.90;99.90;;;;;;5016436;28;20044;-67
2022/12/04 00:52:57;;;;;;;24.83;11.75;;;1.90;99.90;;;;;;5013138;28;20108;-67
2022/12/04 00:55:23;;;;;;;25.15;10.82;;;1.90;99.90;;;;;;5018083;28;20077;-67
2022/12/04 00:57:49;;;;;;;28.08;10.32;;;1.90;99.90;;;;;;5016928;28;20028;-67
2022/12/04 01:00:14;;;;;;;26.02;11.48;;;1.90;99.90;;;;;;5017173;28;20021;-67
2022/12/04 01:02:40;;;;;;;28.65;11.88;;;2.00;99.90;;;;;;5017377;28;20447;-67
2022/12/04 01:05:06;;;;;;;20.85;9.40;;;2.00;99.90;;;;;;4977357;28;20441;-68
2022/12/04 01:07:32;;;;;;;24.65;10.55;;;2.00;99.90;;;;;;5026548;28;20117;-67
2022/12/04 01:09:57;;;;;;;31.58;11.55;;;2.00;99.90;;;;;;5017176;28;20140;-68
2022/12/04 01:12:23;;;;;;;24.80;10.40;;;2.00;99.90;;;;;;5021855;28;20100;-66
2022/12/04 01:14:48;;;;;;;23.25;10.88;;;1.90;99.90;;;;;;5014797;28;20931;-68
2022/12/04 01:17:15;;;;;;;25.50;10.52;;;1.90;99.90;;;;;;5025557;28;20061;-68
2022/12/04 01:19:40;;;;;;;23.10;11.00;;;1.90;99.90;;;;;;5017901;28;20063;-65
2022/12/04 01:22:06;;;;;;;23.63;10.18;;;1.90;99.90;;;;;;5015519;28;20018;-67
2022/12/04 01:24:32;;;;;;;23.27;10.07;;;1.90;99.90;;;;;;5015233;28;20040;-67
2022/12/04 01:26:57;;;;;;;14.85;8.02;;;1.90;99.90;;;;;;5015036;28;20060;-67
2022/12/04 01:29:23;;;;;;;21.70;9.45;;;1.90;99.90;;;;;;5018066;28;20479;-67
2022/12/04 01:31:48;;;;;;;18.58;9.13;;;1.90;99.90;;;;;;5015856;28;20091;-67
2022/12/04 01:34:14;;;;;;;18.75;8.45;;;1.90;99.90;;;;;;5013541;28;20026;-67
2022/12/04 01:36:39;;;;;;;20.83;8.80;;;1.90;99.90;;;;;;5028387;28;20030;-67
2022/12/04 01:39:05;;;;;;;19.98;8.38;;;1.90;99.90;;;;;;5029424;28;20061;-67
2022/12/04 01:41:31;;;;;;;18.45;8.32;;;1.90;99.90;;;;;;5027695;28;20084;-67
2022/12/04 01:44:11;;;;;;;14.35;7.28;;;1.90;99.90;;;;;;5027920;28;20092;-68
2022/12/04 01:46:38;;;;;;;24.40;9.23;;;1.80;99.90;;;;;;5026432;28;20414;-67
2022/12/04 01:49:11;;;;;;;16.35;7.60;;;1.80;99.90;;;;;;5027188;28;20053;-68
2022/12/04 01:51:42;;;;;;;15.13;7.07;;;1.80;99.90;;;;;;5023505;28;20022;-67
2022/12/04 01:54:13;;;;;;;18.92;7.88;;;1.80;99.90;;;;;;5022605;28;20034;-68
2022/12/04 01:56:48;;;;;;;14.23;6.40;;;1.80;99.90;;;;;;5019970;28;20048;-67
2022/12/04 01:59:18;;;;;;;19.83;8.23;;;1.80;99.90;;;;;;5027242;28;20052;-67
2022/12/04 02:01:54;;;;;;;19.35;7.85;;;1.70;99.90;;;;;;5030829;28;20036;-67
2022/12/04 02:04:20;;;;;;;17.67;8.52;;;1.80;99.90;;;;;;5012293;28;20076;-68
2022/12/04 02:06:46;;;;;;;15.00;7.55;;;1.80;99.90;;;;;;5032744;28;20033;-67
2022/12/04 02:09:11;;;;;;;16.45;7.10;;;1.80;99.90;;;;;;5030799;28;20065;-68
2022/12/04 02:12:09;;;;;;;15.48;7.20;;;1.80;99.90;;;;;;5016280;28;20048;-68
2022/12/04 02:14:38;;;;;;;15.60;7.60;;;1.80;99.90;;;;;;5024813;28;20040;-68
2022/12/04 02:17:03;;;;;;;19.20;7.82;;;1.80;99.90;;;;;;5033121;28;20075;-69
2022/12/04 02:19:49;;;;;;;15.93;7.38;;;1.80;99.90;;;;;;5027415;28;20029;-68
2022/12/04 02:22:37;;;;;;;16.48;6.95;;;1.80;99.90;;;;;;5031110;28;20026;-66
2022/12/04 02:25:22;;;;;;;14.57;6.60;;;1.80;99.90;;;;;;5012625;28;20036;-67
2022/12/04 02:28:21;;;;;;;14.40;6.20;;;1.70;99.90;;;;;;5014859;28;20033;-66
2022/12/04 02:30:51;;;;;;;13.43;5.78;;;1.70;99.90;;;;;;5005339;28;20042;-66
2022/12/04 02:33:22;;;;;;;17.08;7.88;;;1.70;99.90;;;;;;5014206;28;20022;-67
2022/12/04 02:35:53;;;;;;;16.58;7.50;;;1.70;99.90;;;;;;5015561;28;20067;-66
2022/12/04 02:38:28;;;;;;;15.52;7.15;;;1.70;99.90;;;;;;5014597;28;20025;-68
2022/12/04 02:41:10;;;;;;;15.75;7.25;;;1.70;99.90;;;;;;5024017;28;20026;-66
2022/12/04 02:43:43;;;;;;;16.83;7.43;;;1.70;99.90;;;;;;5018694;28;20026;-66
2022/12/04 02:46:34;;;;;;;16.60;6.90;;;1.70;99.90;;;;;;5017712;28;20037;-67
2022/12/04 02:49:02;;;;;;;17.30;7.38;;;1.70;99.90;;;;;;5012424;28;20100;-67
2022/12/04 02:51:31;;;;;;;13.43;6.60;;;1.70;99.90;;;;;;5017936;28;20379;-67
2022/12/04 02:54:03;;;;;;;13.82;6.63;;;1.70;99.90;;;;;;5019492;28;20033;-67
2022/12/04 02:56:33;;;;;;;14.20;6.93;;;1.70;99.90;;;;;;5015004;28;20487;-66
2022/12/04 02:59:07;;;;;;;19.02;7.93;;;1.70;99.90;;;;;;5016702;28;20107;-67
2022/12/04 03:01:36;;;;;;;12.77;5.47;;;1.70;99.90;;;;;;5012470;28;20021;-67
2022/12/04 03:04:05;;;;;;;13.60;6.88;;;1.60;99.90;;;;;;5011570;28;20048;-67
2022/12/04 03:06:35;;;;;;;14.05;5.68;;;1.60;99.90;;;;;;5019058;28;20078;-68
2022/12/04 03:09:52;;;;;;;11.48;6.07;;;1.60;99.90;;;;;;5026608;28;20519;-67
2022/12/04 03:12:35;;;;;;;13.65;6.63;;;1.60;99.90;;;;;;4995164;28;20069;-65
2022/12/04 03:15:18;;;;;;;14.13;7.50;;;1.60;99.90;;;;;;5021257;28;20475;-67
2022/12/04 03:18:07;;;;;;;15.27;7.05;;;1.50;99.90;;;;;;5024832;28;20060;-67
2022/12/04 03:20:35;;;;;;;15.25;7.63;;;1.60;99.90;;;;;;5011757;28;20079;-66
2022/12/04 03:23:09;;;;;;;15.68;7.43;;;1.60;99.90;;;;;;5028661;28;20380;-67
2022/12/04 03:25:39;;;;;;;;;;;1.60;99.90;;;;;;5029547;28;20032;-67
2022/12/04 03:28:14;;;;;;;14.05;5.85;;;1.60;99.90;;;;;;5030624;28;19963;-67
2022/12/04 03:30:48;;;;;;;17.63;8.32;;;1.60;99.90;;;;;;5019419;28;20430;-67
2022/12/04 03:33:21;;;;;;;16.83;7.40;;;1.60;99.90;;;;;;5031299;28;20037;-67
2022/12/04 03:35:58;;;;;;;14.68;6.25;;;1.60;99.90;;;;;;5024209;28;20518;-67
2022/12/04 03:38:34;;;;;;;16.25;6.65;;;1.60;99.90;;;;;;5018488;28;20036;-66
2022/12/04 03:41:33;;;;;;;17.63;6.90;;;1.60;99.90;;;;;;5019511;28;20026;-67
2022/12/04 03:44:11;;;;;;;13.02;6.85;;;1.60;99.90;;;;;;5016004;28;20057;-67
2022/12/04 03:47:01;;;;;;;13.82;6.75;;;1.60;99.90;;;;;;5023619;28;20042;-67
2022/12/04 03:49:48;;;;;;;17.27;6.95;;;1.50;99.90;;;;;;5026116;28;20048;-67
2022/12/04 03:52:41;;;;;;;13.02;6.82;;;1.50;99.90;;;;;;5022645;28;20104;-67
2022/12/04 03:55:14;;;;;;;11.50;5.75;;;1.50;99.90;;;;;;5024222;28;20037;-67
2022/12/04 03:57:44;;;;;;;12.07;6.70;;;1.50;99.90;;;;;;4999967;28;20061;-67
2022/12/04 04:00:16;;;;;;;16.58;6.97;;;1.50;99.90;;;;;;5001631;28;20117;-67
2022/12/04 04:02:50;;;;;;;12.50;5.97;;;1.50;99.90;;;;;;5004813;28;20021;-68
2022/12/04 04:05:18;;;;;;;11.95;6.10;;;1.50;99.90;;;;;;5005764;28;20041;-66
2022/12/04 04:07:49;;;;;;;14.02;7.07;;;1.50;99.90;;;;;;5007955;28;20572;-67
2022/12/04 04:10:18;;;;;;;11.88;6.72;;;1.50;99.90;;;;;;5002255;28;20038;-67
2022/12/04 04:24:28;;;;;;;13.32;6.60;;;1.40;99.90;;;;;;5002667;28;20046;-67
2022/12/04 04:26:54;;;;;;;12.50;6.15;;;1.40;99.90;;;;;;5006910;28;20062;-67
2022/12/04 04:29:20;;;;;;;14.38;7.13;;;1.40;99.90;;;;;;5007860;28;20633;-67
2022/12/04 04:31:58;;;;;;;12.65;6.68;;;1.50;99.90;;;;;;5009777;28;20105;-67
2022/12/04 04:34:29;;;;;;;11.75;5.82;;;1.50;99.90;;;;;;5002471;28;20026;-67
2022/12/04 04:36:59;;;;;;;16.52;7.22;;;1.50;99.90;;;;;;4997728;28;20373;-67
2022/12/04 04:39:31;;;;;;;10.57;5.43;;;1.50;99.90;;;;;;5009143;28;20029;-67
2022/12/04 04:42:18;;;;;;;12.18;6.13;;;1.50;99.90;;;;;;5007580;28;20088;-67
2022/12/04 04:44:45;;;;;;;15.13;6.13;;;1.50;99.90;;;;;;5001308;28;20021;-68
2022/12/04 04:47:18;;;;;;;13.98;6.07;;;1.50;99.90;;;;;;5008804;28;20014;-68
2022/12/04 04:49:46;;;;;;;12.65;6.75;;;1.40;99.90;;;;;;5006034;28;20541;-66
2022/12/04 04:52:12;;;;;;;12.93;6.30;;;1.40;99.90;;;;;;5012692;28;20033;-67
2022/12/04 04:54:38;;;;;;;15.98;7.22;;;1.40;99.90;;;;;;5001880;28;20027;-68
2022/12/04 04:57:04;;;;;;;11.13;5.72;;;1.30;99.90;;;;;;5009784;28;20499;-67
2022/12/04 04:59:29;;;;;;;13.30;7.00;;;1.30;99.90;;;;;;5006101;28;20045;-67
2022/12/04 05:01:55;;;;;;;12.65;6.72;;;1.30;99.90;;;;;;5007933;28;20036;-68
2022/12/04 05:04:21;;;;;;;12.88;7.10;;;1.30;99.90;;;;;;5003354;28;20108;-67
2022/12/04 05:06:47;;;;;;;15.27;6.57;;;1.30;99.90;;;;;;5027512;28;20130;-68
2022/12/04 05:09:13;;;;;;;12.75;6.60;;;1.20;99.90;;;;;;5027987;28;20025;-67
2022/12/04 05:11:38;;;;;;;14.82;6.97;;;1.30;99.90;;;;;;5028484;28;20041;-67
2022/12/04 05:14:05;;;;;;;13.60;6.22;;;1.30;99.90;;;;;;5028296;28;20412;-68
2022/12/04 05:16:31;;;;;;;15.98;7.35;;;1.20;99.90;;;;;;5027013;28;20503;-66
2022/12/04 05:21:41;;;;;;;15.07;6.53;;;1.20;99.90;;;;;;5027230;28;20067;-67
2022/12/04 05:24:07;;;;;;;12.23;6.53;;;1.20;99.90;;;;;;5028506;28;20101;-67
2022/12/04 05:26:33;;;;;;;12.25;6.47;;;1.20;99.90;;;;;;5028883;28;20447;-67
2022/12/04 05:28:59;;;;;;;15.95;7.15;;;1.10;99.90;;;;;;5022843;28;20184;-66
2022/12/04 05:31:24;;;;;;;14.00;6.28;;;1.10;99.90;;;;;;5022941;28;20030;-68
2022/12/04 05:33:50;;;;;;;14.02;6.60;;;1.10;99.90;;;;;;5027820;28;20047;-67
2022/12/04 05:36:15;;;;;;;16.23;7.65;;;1.20;99.90;;;;;;5025262;28;20034;-68
2022/12/04 05:38:41;;;;;;;13.93;6.57;;;1.10;99.90;;;;;;5027177;28;20025;-67
2022/12/04 05:41:06;;;;;;;14.90;7.70;;;1.10;99.90;;;;;;5027935;28;20033;-67
2022/12/04 05:43:33;;;;;;;13.68;6.72;;;1.10;99.90;;;;;;5027924;28;20033;-67
2022/12/04 05:46:04;;;;;;;14.75;6.32;;;1.10;99.90;;;;;;5025330;28;20033;-68
2022/12/04 05:48:30;;;;;;;13.55;7.35;;;1.00;99.90;;;;;;5028734;28;20029;-68
2022/12/04 05:50:56;;;;;;;15.23;6.70;;;1.00;99.90;;;;;;5028616;28;20032;-67
2022/12/04 05:53:22;;;;;;;15.10;7.38;;;1.00;99.90;;;;;;5028037;28;20124;-67
2022/12/04 05:55:58;;;;;;;15.48;7.18;;;1.00;99.90;;;;;;5027891;28;20033;-67
2022/12/04 05:58:24;;;;;;;14.45;6.97;;;0.90;99.90;;;;;;5027922;28;21278;-67
2022/12/04 06:00:50;;;;;;;13.70;6.68;;;1.00;99.90;;;;;;5018180;28;20022;-67
2022/12/04 06:03:16;;;;;;;12.98;6.47;;;1.00;99.90;;;;;;5004789;28;20519;-68
2022/12/04 06:05:41;;;;;;;15.40;6.68;;;1.00;99.90;;;;;;5008665;28;20392;-67
2022/12/04 06:08:07;;;;;;;14.18;6.32;;;1.00;99.90;;;;;;5007982;28;20029;-68
2022/12/04 06:10:33;;;;;;;12.05;6.20;;;0.90;99.90;;;;;;5004480;28;20064;-67
2022/12/04 06:12:58;;;;;;;12.55;6.22;;;1.00;99.90;;;;;;5007340;28;20045;-67
2022/12/04 06:15:24;;;;;;;16.33;7.88;;;1.00;99.90;;;;;;5005961;28;20526;-68
2022/12/04 06:17:49;;;;;;;13.85;6.90;;;0.90;99.90;;;;;;5006610;28;20049;-67
2022/12/04 06:20:15;;;;;;;13.82;6.78;;;0.90;99.90;;;;;;5006445;28;20030;-67
2022/12/04 06:22:40;;;;;;;13.95;6.88;;;0.90;99.90;;;;;;5003485;28;20034;-67
2022/12/04 06:25:07;;;;;;;15.02;6.80;;;0.90;99.90;;;;;;5005901;28;20033;-67
2022/12/04 06:27:32;;;;;;;12.60;6.03;;;0.90;99.90;;;;;;5003328;28;20084;-68
2022/12/04 06:29:58;;;;;;;15.10;6.45;;;1.00;99.90;;;;;;5007840;28;20050;-68
2022/12/04 06:32:24;;;;;;;15.60;6.00;;;1.00;99.90;;;;;;5008061;28;20030;-67
2022/12/04 06:34:54;;;;;;;12.45;6.00;;;0.90;99.90;;;;;;5008221;28;20535;-67
2022/12/04 06:37:21;;;;;;;11.85;6.18;;;0.90;99.90;;;;;;5006741;28;20037;-67
2022/12/04 06:39:47;;;;;;;14.05;6.55;;;0.90;99.90;;;;;;5005756;28;20067;-66
2022/12/04 06:42:12;;;;;;;12.70;7.03;;;0.90;99.90;;;;;;5007941;28;20026;-66
2022/12/04 06:44:38;;;;;;;13.93;6.68;;;0.90;99.90;;;;;;5009456;28;20455;-66
2022/12/04 06:47:04;;;;;;;14.95;6.82;;;0.90;99.90;;;;;;5013191;28;20495;-66
2022/12/04 06:49:29;;;;;;;12.43;6.47;;;0.90;99.90;;;;;;5012263;28;20076;-66
2022/12/04 06:51:55;;;;;;;13.13;6.03;;;0.90;99.90;;;;;;5013157;28;20105;-66
2022/12/04 06:54:21;;;;;;;16.45;6.63;;;0.90;99.90;;;;;;5012334;28;20022;-66
2022/12/04 06:56:48;;;;;;;13.95;6.85;;;0.90;99.90;;;;;;5006142;28;20052;-65
2022/12/04 06:59:14;;;;;;;14.35;6.25;;;0.90;99.90;;;;;;5007645;28;20045;-66
2022/12/04 07:01:39;;;;;;;13.00;6.40;;;0.80;99.90;;;;;;5008945;28;20423;-66
2022/12/04 07:04:05;;;;;;;17.10;7.93;;;0.80;99.90;;;;;;4991451;28;20131;-67
2022/12/04 07:06:33;;;;;;;11.88;5.53;;;0.80;99.90;;;;;;5009440;28;20029;-66
2022/12/04 07:09:12;;;;;;;16.60;7.75;;;0.90;99.90;;;;;;5006225;28;20041;-66
2022/12/04 07:11:39;;;;;;;15.45;7.07;;;0.90;99.90;;;;;;5006212;28;20180;-66
2022/12/04 07:14:05;;;;;;;12.88;6.13;;;0.80;99.90;;;;;;5009926;28;20503;-66
2022/12/04 07:16:31;;;;;;;13.18;6.60;;;0.80;99.90;;;;;;5006628;28;20091;-66
2022/12/04 07:18:57;;;;;;;12.98;6.40;;;0.80;99.90;;;;;;5009712;28;20514;-67
2022/12/04 07:21:25;;;;;;;16.90;6.82;;;0.80;99.90;;;;;;5011068;28;20045;-66
2022/12/04 07:23:53;;;;;;;14.98;6.65;;;0.80;99.90;;;;;;5009477;28;20038;-66
2022/12/04 07:26:19;;;;;;;13.45;6.47;;;0.70;99.90;;;;;;5011566;28;20021;-67
2022/12/04 07:28:45;;;;;;;14.00;6.43;;;0.80;99.90;;;;;;5006244;28;20110;-66
2022/12/04 07:31:13;;;;;;;13.73;6.82;;;0.70;99.90;;;;;;5010112;28;20058;-66
2022/12/04 07:33:40;;;;;;;16.02;7.50;;;0.70;99.90;;;;;;5007847;28;20402;-67
2022/12/04 07:36:08;;;;;;;15.88;7.18;;;0.70;99.90;;;;;;5010808;28;20377;-67
2022/12/04 07:38:34;;;;;;;16.00;6.07;;;0.70;99.90;;;;;;5009976;28;20080;-67
2022/12/04 07:41:02;;;;;;;13.65;6.60;;;0.70;99.90;;;;;;5010557;28;20030;-67
2022/12/04 07:43:28;;;;;;;16.60;6.82;;;0.70;99.90;;;;;;5009952;28;20026;-66
2022/12/04 07:45:54;;;;;;;14.20;7.00;;;0.70;99.90;;;;;;5011990;28;20088;-65
2022/12/04 07:48:20;;;;;;;11.43;6.18;;;0.80;99.90;;;;;;5010376;28;20017;-66
2022/12/04 07:50:46;;;;;;;16.30;7.22;;;0.80;99.90;;;;;;5012294;28;20072;-66
2022/12/04 07:53:12;;;;;;;15.05;6.80;;;0.80;99.90;;;;;;5011895;28;20132;-66
2022/12/04 07:55:38;;;;;;;18.58;7.47;;;0.80;99.90;;;;;;5009461;28;20113;-67
2022/12/04 07:58:03;;;;;;;12.40;6.57;;;0.80;99.90;;;;;;5008070;28;20034;-67
2022/12/04 08:00:29;;;;;;;17.35;7.47;;;0.80;99.90;;;;;;5007739;28;20384;-62
2022/12/04 08:02:54;;;;;;;17.67;7.80;;;0.80;99.90;;;;;;5011671;28;20026;-66
2022/12/04 08:05:20;;;;;;;13.43;6.63;;;0.90;99.90;;;;;;4990131;28;20054;-67
2022/12/04 08:07:46;;;;;;;13.68;6.93;;;0.90;99.90;;;;;;5011017;28;20034;-67
2022/12/04 08:10:12;;;;;;;15.38;7.65;;;0.90;99.90;;;;;;5009888;28;20751;-66
2022/12/04 08:12:38;;;;;;;15.55;7.22;;;0.90;99.90;;;;;;5011655;28;20034;-67
2022/12/04 08:15:04;;;;;;;13.80;6.70;;;0.90;99.90;;;;;;5002677;28;20502;-67
2022/12/04 08:17:30;;;;;;;13.52;6.03;;;0.90;99.90;;;;;;5008290;28;20030;-68
2022/12/04 08:19:55;;;;;;;13.95;7.03;;;0.90;99.90;;;;;;5009971;28;20109;-67
2022/12/04 08:22:21;;;;;;;16.48;6.55;;;0.90;99.90;;;;;;5005444;28;20080;-67
2022/12/04 08:24:47;;;;;;;12.85;7.03;;;0.90;99.90;;;;;;5008229;28;20483;-67
2022/12/04 08:27:12;;;;;;;19.00;8.38;;;0.90;99.90;;;;;;5011701;28;20057;-67
2022/12/04 08:29:38;;;;;;;14.15;6.55;;;0.90;99.90;;;;;;5007626;28;20022;-67
2022/12/04 08:32:04;;;;;;;20.88;7.85;;;0.90;99.90;;;;;;5010253;28;20026;-66
2022/12/04 08:34:29;;;;;;;13.75;7.43;;;0.90;99.90;;;;;;5008413;28;20022;-65
2022/12/04 08:36:55;;;;;;;15.50;7.28;;;0.90;99.90;;;;;;5011181;28;20487;-67
2022/12/04 08:39:20;;;;;;;17.73;6.95;;;0.90;99.90;;;;;;5007588;28;20038;-67
2022/12/04 08:41:46;;;;;;;17.17;7.22;;;1.00;99.90;;;;;;5009986;28;20030;-66
2022/12/04 08:44:12;;;;;;;15.25;7.05;;;0.90;99.90;;;;;;4999985;28;20022;-66
2022/12/04 08:46:38;;;;;;;15.15;7.45;;;0.90;99.90;;;;;;5007954;28;20040;-67
2022/12/04 08:49:03;;;;;;;13.27;6.95;;;1.00;99.90;;;;;;5009241;28;20488;-66
2022/12/04 08:51:31;;;;;;;16.02;8.35;;;0.90;99.90;;;;;;5014995;28;20514;-67
2022/12/04 08:53:59;;;;;;;16.30;7.45;;;1.00;99.90;;;;;;5010079;28;20026;-67
2022/12/04 08:56:27;;;;;;;15.35;7.05;;;1.00;99.90;;;;;;5008569;28;20033;-65
2022/12/04 08:58:54;;;;;;;15.13;7.07;;;1.00;99.90;;;;;;5003136;28;20492;-66
2022/12/04 09:01:19;;;;;;;17.80;7.85;;;1.10;99.90;;;;;;5007288;28;20034;-66
2022/12/04 09:03:45;;;;;;;16.35;8.15;;;1.10;99.90;;;;;;4988662;28;20030;-66
2022/12/04 09:06:13;;;;;;;16.33;7.60;;;1.10;99.90;;;;;;5010124;28;20100;-67
2022/12/04 09:08:39;;;;;;;13.23;7.28;;;1.20;99.90;;;;;;5007253;28;20037;-66
2022/12/04 09:11:08;;;;;;;16.80;7.53;;;1.10;99.90;;;;;;5006689;28;20377;-66
2022/12/04 09:13:33;;;;;;;18.08;7.57;;;1.20;99.90;;;;;;5005864;28;20030;-67
2022/12/04 09:16:03;;;;;;;12.75;6.50;;;1.20;99.90;;;;;;5000010;28;20118;-66
2022/12/04 09:18:29;;;;;;;14.75;7.88;;;1.20;99.90;;;;;;5005439;28;20036;-65
2022/12/04 09:21:00;;;;;;;14.45;8.00;;;1.20;99.90;;;;;;4995901;28;20034;-66
2022/12/04 09:23:26;;;;;;;17.08;7.18;;;1.20;99.90;;;;;;5007264;28;20591;-65
2022/12/04 09:25:52;;;;;;;17.55;8.32;;;1.20;99.90;;;;;;5009563;28;20037;-67
2022/12/04 09:28:18;;;;;;;15.23;7.55;;;1.20;99.90;;;;;;5008480;28;20026;-65
2022/12/04 09:30:44;;;;;;;14.68;7.75;;;1.20;99.90;;;;;;5009575;28;20037;-66
2022/12/04 09:33:10;;;;;;;15.80;7.32;;;1.20;99.90;;;;;;5006506;28;20037;-66
2022/12/04 09:35:37;;;;;;;19.73;7.70;;;1.20;99.90;;;;;;5003581;28;20069;-66
2022/12/04 09:38:03;;;;;;;15.93;7.45;;;1.20;99.90;;;;;;5008873;28;20498;-66
2022/12/04 09:40:39;;;;;;;16.55;7.65;;;1.20;99.90;;;;;;5007922;28;20029;-64
2022/12/04 09:43:23;;;;;;;16.20;6.97;;;1.30;99.90;;;;;;5006334;28;20136;-64
2022/12/04 09:45:54;;;;;;;18.13;7.40;;;1.30;99.90;;;;;;5001969;28;20488;-66
2022/12/04 09:48:25;;;;;;;16.73;7.22;;;1.40;99.90;;;;;;5005841;28;20491;-66
2022/12/04 09:50:52;;;;;;;13.63;7.50;;;1.50;99.90;;;;;;5008353;28;20030;-66
2022/12/04 09:53:39;;;;;;;15.95;7.68;;;1.50;99.90;;;;;;5009093;28;20030;-67
2022/12/04 09:56:09;;;;;;;14.90;7.20;;;1.60;99.90;;;;;;5008698;28;20061;-66
2022/12/04 09:58:44;;;;;;;13.85;6.85;;;1.60;99.90;;;;;;5009260;28;20034;-67
2022/12/04 10:01:20;;;;;;;13.20;6.50;;;1.60;99.90;;;;;;5004575;28;20056;-66
2022/12/04 10:03:46;;;;;;;14.05;7.55;;;1.60;99.90;;;;;;4985479;28;20029;-66
2022/12/04 10:06:15;;;;;;;13.93;6.93;;;1.70;99.90;;;;;;5009304;28;20026;-66
2022/12/04 10:08:44;;;;;;;14.45;6.65;;;1.70;99.90;;;;;;5006193;28;20042;-66
2022/12/04 10:11:20;;;;;;;12.70;7.07;;;1.70;99.90;;;;;;5009816;28;20057;-66
2022/12/04 10:14:06;;;;;;;13.73;7.88;;;1.80;99.90;;;;;;5006826;28;20115;-66
2022/12/04 10:16:51;;;;;;;16.80;6.80;;;1.90;99.90;;;;;;5002879;28;20060;-65
2022/12/04 10:19:49;;;;;;;15.68;7.13;;;1.90;99.90;;;;;;5006490;28;20053;-67
2022/12/04 10:22:43;;;;;;;35.53;13.10;;;1.90;99.90;;;;;;5007483;28;20037;-67
2022/12/04 10:25:19;;;;;;;21.00;8.95;;;2.00;99.90;;;;;;4994654;28;20077;-67
2022/12/04 10:27:52;;;;;;;17.63;8.80;;;1.90;99.90;;;;;;5010482;28;20112;-67
2022/12/04 10:30:35;;;;;;;16.43;8.83;;;2.00;99.90;;;;;;5010471;28;20041;-66
2022/12/04 10:33:17;;;;;;;16.20;7.32;;;2.00;99.90;;;;;;5012949;28;20153;-65
2022/12/04 10:35:46;;;;;;;15.73;8.10;;;2.10;99.90;;;;;;5006056;28;20026;-66
2022/12/04 10:38:28;;;;;;;17.08;7.40;;;2.00;99.90;;;;;;5008503;28;20018;-67
2022/12/04 10:41:03;;;;;;;21.88;8.35;;;2.00;99.90;;;;;;5006233;28;20495;-65
2022/12/04 10:43:49;;;;;;;14.57;6.68;;;2.10;99.90;;;;;;5008963;28;20026;-66
2022/12/04 10:46:24;;;;;;;18.67;7.80;;;2.10;99.90;;;;;;5005335;28;20106;-67
2022/12/04 10:48:58;;;;;;;15.20;7.15;;;2.20;99.90;;;;;;5012429;28;20113;-66
2022/12/04 10:51:24;;;;;;;17.00;7.15;;;2.20;99.90;;;;;;5009324;28;20038;-66
2022/12/04 10:53:50;;;;;;;16.42;8.55;;;2.10;99.90;;;;;;5006379;28;20499;-66
2022/12/04 10:56:22;;;;;;;16.08;7.13;;;2.10;99.90;;;;;;5010262;28;20108;-67
2022/12/04 10:58:55;;;;;;;21.20;8.05;;;2.10;99.90;;;;;;5004947;28;20499;-66
2022/12/04 11:01:22;;;;;;;16.00;7.75;;;2.20;99.90;;;;;;5011676;28;20369;-66
2022/12/04 11:03:56;;;;;;;17.42;7.40;;;2.20;99.90;;;;;;5008099;28;20518;-67
2022/12/04 11:06:25;;;;;;;16.92;7.97;;;2.20;99.90;;;;;;4987024;28;20042;-67
2022/12/04 11:08:52;;;;;;;15.68;8.13;;;2.20;99.90;;;;;;5007273;28;20112;-67
2022/12/04 11:11:25;;;;;;;15.25;7.32;;;2.30;99.90;;;;;;5011946;28;20365;-66
2022/12/04 11:14:27;;;;;;;19.92;7.50;;;2.30;99.90;;;;;;5010948;28;20129;-67
2022/12/04 11:17:02;;;;;;;15.23;6.90;;;2.40;99.90;;;;;;4926795;29;20051;-66
2022/12/04 11:19:30;;;;;;;19.52;6.90;;;2.40;99.90;;;;;;5000390;28;20038;-66
2022/12/04 11:22:03;;;;;;;16.83;6.68;;;2.40;99.90;;;;;;5007117;28;20694;-66
2022/12/04 11:24:39;;;;;;;14.65;7.13;;;2.30;99.90;;;;;;5005641;28;20034;-65
2022/12/04 11:27:06;;;;;;;16.02;6.57;;;2.30;99.90;;;;;;5011599;28;20028;-66
2022/12/04 11:29:40;;;;;;;16.35;7.57;;;2.40;99.90;;;;;;5010379;28;20030;-66
2022/12/04 11:32:13;;;;;;;17.30;6.90;;;2.50;99.90;;;;;;5007678;28;20164;-67
2022/12/04 11:34:39;;;;;;;14.40;6.53;;;2.40;99.90;;;;;;5009469;28;20032;-67
2022/12/04 11:37:16;;;;;;;13.63;6.00;;;2.50;99.90;;;;;;5010536;28;20030;-66
2022/12/04 11:39:44;;;;;;;19.50;8.05;;;2.40;99.90;;;;;;5007057;28;20057;-66
2022/12/04 11:42:12;;;;;;;16.23;6.97;;;2.40;99.90;;;;;;5009986;28;20120;-67
2022/12/04 11:44:39;;;;;;;13.82;6.40;;;2.40;99.90;;;;;;5011063;28;20018;-66
2022/12/04 11:47:14;;;;;;;17.48;7.20;;;2.40;99.90;;;;;;5008466;28;20109;-68
2022/12/04 11:49:41;;;;;;;14.75;6.60;;;2.40;99.90;;;;;;5002030;28;20049;-66
2022/12/04 11:52:30;;;;;;;16.25;7.80;;;2.40;99.90;;;;;;5011419;28;20101;-66
2022/12/04 11:55:02;;;;;;;12.88;6.53;;;2.50;99.90;;;;;;5011479;28;20030;-67
2022/12/04 11:57:39;;;;;;;16.13;7.93;;;2.50;99.90;;;;;;5011128;28;20100;-67
2022/12/04 12:00:11;;;;;;;17.45;7.05;;;2.50;99.90;;;;;;5006640;28;20021;-67
2022/12/04 12:02:53;;;;;;;22.58;8.40;;;2.50;99.90;;;;;;5009601;28;20107;-67
2022/12/04 12:05:22;;;;;;;16.27;7.93;;;2.50;99.90;;;;;;4983528;28;20077;-66
2022/12/04 12:08:03;;;;;;;17.88;8.02;;;2.40;99.90;;;;;;5004376;28;20486;-68
2022/12/04 12:10:54;;;;;;;14.63;8.80;;;2.40;99.90;;;;;;5006835;28;20795;-66
2022/12/04 12:13:20;;;;;;;14.50;7.28;;;2.50;99.90;;;;;;5009953;28;20029;-66
2022/12/04 12:16:13;;;;;;;16.67;7.78;;;2.50;99.90;;;;;;5004798;28;20521;-66
2022/12/04 12:18:53;;;;;;;18.25;8.10;;;2.60;99.90;;;;;;5008672;28;20010;-66
2022/12/04 12:21:31;;;;;;;18.77;8.50;;;2.60;99.90;;;;;;5009053;28;20025;-66
2022/12/04 12:24:29;;;;;;;20.90;8.55;;;2.60;99.90;;;;;;5004715;28;20037;-67
2022/12/04 12:26:57;;;;;;;19.30;8.52;;;2.70;99.90;;;;;;5003690;28;20033;-66
2022/12/04 12:29:26;;;;;;;19.27;8.13;;;2.80;99.90;;;;;;5004993;28;20026;-67
2022/12/04 12:32:06;;;;;;;19.58;9.20;;;2.80;99.90;;;;;;5007502;28;20037;-66
2022/12/04 12:34:36;;;;;;;20.13;8.65;;;2.80;99.90;;;;;;5008235;28;21927;-66
2022/12/04 12:37:28;;;;;;;20.40;8.48;;;2.80;99.90;;;;;;5008280;28;20033;-65
2022/12/04 12:40:35;;;;;;;18.60;8.05;;;2.80;99.90;;;;;;5006887;28;20018;-66
2022/12/04 12:43:01;;;;;;;16.63;8.23;;;2.80;99.90;;;;;;4985430;28;20139;-67
2022/12/04 12:46:08;;;;;;;15.05;7.63;;;2.80;99.90;;;;;;5008418;28;20499;-67
2022/12/04 12:48:48;;;;;;;19.48;8.35;;;2.80;99.90;;;;;;5001194;28;20073;-66
2022/12/04 12:51:28;;;;;;;18.83;7.78;;;2.80;99.90;;;;;;5008298;28;20030;-66
2022/12/04 12:54:00;;;;;;;20.55;8.60;;;2.80;99.90;;;;;;5005303;28;20064;-66
2022/12/04 12:56:35;;;;;;;20.85;9.07;;;2.80;99.90;;;;;;5009688;28;20450;-66
2022/12/04 12:59:04;;;;;;;21.38;10.73;;;2.80;99.90;;;;;;5003352;28;20118;-66
2022/12/04 13:01:49;;;;;;;24.23;10.15;;;2.80;99.90;;;;;;5009176;28;20037;-65
2022/12/04 13:04:40;;;;;;;19.27;8.40;;;2.80;99.90;;;;;;4985680;28;20054;-67
2022/12/04 13:07:43;;;;;;;19.33;7.70;;;2.70;99.90;;;;;;4999164;28;20063;-66
2022/12/04 13:10:18;;;;;;;18.55;8.38;;;2.80;99.90;;;;;;5005735;28;20022;-67
2022/12/04 13:12:56;;;;;;;17.25;8.20;;;2.80;99.90;;;;;;4997167;28;20079;-65
2022/12/04 13:15:28;;;;;;;19.65;8.98;;;2.70;99.90;;;;;;5006128;28;20036;-66
2022/12/04 13:17:56;;;;;;;18.77;8.57;;;2.70;99.90;;;;;;5009435;28;20030;-67
2022/12/04 13:20:28;;;;;;;22.10;9.55;;;2.70;99.90;;;;;;5008193;28;20523;-66